Detall de PIREP

Printer-friendly versionPDF version

[2014/06/03 08:34:00]
Flight IATA:CT2201
Pilot Number:042
Company ICAO:CAT
Aircraft Type:F100/A
PAX:48
Aircraft Registration:PFJ
Departing Airport: LFOH
Destination Airport: LFMP
Alternate Airport:LEGE
Online: VATSIM
Route:N0450F270 DVL UN859 AMB/N0450F310 UN859 BALAN UN859 BEBIX UN859 GAI/N0350F190 G36 ORBIL
Flight Level:F310
No Slew and time accel
No pause
Crash detect
Detect pilot in Cockpit between each 30 and 45 minutes
08:34 Zero fuel Weight: 81825 Lbs, Fuel Weight: 15191 Lbs
08:34 VATSIM:LFOH 030800Z AUTO 24009KT 9999 BKN007 BKN013 OVC033 14/11 Q1015
08:34 VATSIM:LFMP 030800Z 31013KT 9999 FEW033 22/10 Q1017 NOSIG
08:35 Parking Brakes off
08:38 Take-off
08:38 Take off Weight: 96690 Lbs
08:38 Wind: 239º @ 008 Knots Heading: 224º
08:38 POS N49º 31´ 41´´ E000º 04´ 47´´
08:38 Gear Up: 171 Knots
08:38 Flaps:2 at 171 Knots
08:39 Flaps:0 at 155 Knots
08:53 Wind:255º@021 Knots Heading: 167º Ground Speed: 427 Knots Altitude 27486 ft
08:56 TOC
08:56 Fuel Weight: 12415 Lb
09:08 Wind:239º@024 Knots Heading: 160º Ground Speed: 443 Knots Altitude 31164 ft
09:23 Wind:298º@022 Knots Heading: 173º Ground Speed: 467 Knots Altitude 31167 ft
09:24 TOD
09:24 Fuel Weight: 10007 Lb
09:38 Wind:286º@028 Knots Heading: 131º Ground Speed: 343 Knots Altitude 11361 ft
09:47 Flaps:1 at 201 Knots
09:48 Flaps:2 at 195 Knots
09:49 Gear Down: 178 Knots
09:49 Flaps:3 at 178 Knots
09:52 TouchDown:Rate -165 ft/min Speed: 152 Knots
09:52 VATSIM:LFMP 030930Z 33014KT 290V050 9999 FEW033 24/08 Q1016 NOSIG
09:53 Land
09:53 Wind:333º@014 Knots
09:53 Heading: 329º
09:53 Flight Duration: 01:15
09:53 Landing Weight: 90406 Lbs
09:53 POS N42º 44´ 48´´ E002º 52´ 04´´
09:53 Parking brakes on
09:53 Block to Block Duration: 01:18
09:53 Final Fuel: 8538 Lbls
09:53 Spent Fuel: 6653 Lbls
09:53 Flight Length: 466 NM
09:53 TOD Land Length: 146 NM

Exportar CSV

Powered by Drupal - Modified by Danger4k